Time;durP1;ratioP1;P1;durP2;ratioP2;P2;SDS_P1;SDS_P2;PMS_P1;PMS_P2;Temp;Humidity;BMP_temperature;BMP_pressure;BME280_temperature;BME280_humidity;BME280_pressure;Samples;Min_cycle;Max_cycle;Signal;HPM_P1;HPM_P2
2024/01/16 00:00:49;;;;;;;1.30;0.80;;;19.20;37.80;;;;;;8325508;28;20044;-49
2024/01/16 00:04:50;;;;;;;3.25;0.80;;;19.00;38.70;;;;;;8324640;28;20515;-49
2024/01/16 00:08:50;;;;;;;1.23;0.82;;;19.00;38.70;;;;;;8324705;28;20056;-46
2024/01/16 00:12:51;;;;;;;1.65;0.70;;;19.00;38.30;;;;;;8323185;28;20030;-46
2024/01/16 00:16:52;;;;;;;1.30;0.90;;;19.00;38.40;;;;;;8326811;28;20558;-53
2024/01/16 00:20:52;;;;;;;1.13;0.80;;;19.10;38.00;;;;;;8326823;28;20037;-50
2024/01/16 00:24:53;;;;;;;1.75;1.05;;;19.20;37.60;;;;;;8327004;28;20510;-47
2024/01/16 00:28:54;;;;;;;0.93;0.80;;;19.30;38.00;;;;;;8326776;28;20044;-47
2024/01/16 00:32:54;;;;;;;0.52;0.52;;;19.40;38.60;;;;;;8326417;28;20034;-46
2024/01/16 00:36:55;;;;;;;0.70;0.70;;;19.40;38.50;;;;;;8326613;28;20407;-51
2024/01/16 00:40:56;;;;;;;1.38;1.00;;;19.50;38.30;;;;;;8326234;28;20502;-48
2024/01/16 00:44:56;;;;;;;0.50;0.50;;;19.50;38.00;;;;;;8326284;28;20033;-49
2024/01/16 00:48:57;;;;;;;2.70;0.80;;;19.40;38.20;;;;;;8325814;28;20044;-48
2024/01/16 00:52:58;;;;;;;1.40;0.90;;;19.30;39.10;;;;;;8325832;28;20387;-47
2024/01/16 00:56:59;;;;;;;1.13;0.80;;;19.20;39.00;;;;;;8325675;28;20021;-48
2024/01/16 01:01:00;;;;;;;0.85;0.82;;;19.20;38.60;;;;;;8324589;28;20087;-47
2024/01/16 01:05:01;;;;;;;0.90;0.70;;;19.30;38.40;;;;;;8324613;28;20037;-46
2024/01/16 01:09:02;;;;;;;0.90;0.80;;;19.30;38.20;;;;;;8324996;28;20136;-48
2024/01/16 01:13:03;;;;;;;1.80;0.77;;;19.40;38.00;;;;;;8325368;28;20045;-47
2024/01/16 01:17:05;;;;;;;0.90;0.80;;;19.40;37.80;;;;;;8323735;28;20559;-52
2024/01/16 01:21:06;;;;;;;1.65;0.95;;;19.50;37.90;;;;;;8325888;28;20065;-53
2024/01/16 01:25:07;;;;;;;1.00;0.90;;;19.40;37.80;;;;;;8327760;28;20163;-51
2024/01/16 01:29:08;;;;;;;0.70;0.70;;;19.30;38.40;;;;;;8327673;28;20037;-51
2024/01/16 01:33:09;;;;;;;0.55;0.55;;;19.20;38.40;;;;;;8327502;28;20029;-49
2024/01/16 01:37:10;;;;;;;2.00;0.70;;;19.20;38.20;;;;;;8327809;28;20032;-49
2024/01/16 01:41:11;;;;;;;1.00;0.90;;;19.20;38.00;;;;;;8327814;28;20033;-49
2024/01/16 01:45:12;;;;;;;0.93;0.80;;;19.20;37.90;;;;;;8326485;28;20041;-49
2024/01/16 01:49:15;;;;;;;1.25;0.85;;;19.10;37.70;;;;;;8327471;28;20041;-49
2024/01/16 01:53:16;;;;;;;0.93;0.65;;;19.10;37.60;;;;;;8326155;28;20029;-52
2024/01/16 01:57:17;;;;;;;1.10;0.90;;;19.10;37.50;;;;;;8326543;28;20034;-51
2024/01/16 02:01:20;;;;;;;2.65;1.10;;;19.10;37.50;;;;;;8327225;28;20048;-51
2024/01/16 02:05:21;;;;;;;3.47;1.08;;;19.10;37.40;;;;;;8327177;28;20037;-49
2024/01/16 02:09:23;;;;;;;1.20;0.80;;;19.10;37.40;;;;;;8327018;28;20180;-49
2024/01/16 02:13:23;;;;;;;1.50;0.90;;;18.90;38.30;;;;;;8327011;28;20053;-51
2024/01/16 02:17:24;;;;;;;1.33;0.85;;;18.80;39.00;;;;;;8325650;28;20515;-51
2024/01/16 02:21:27;;;;;;;2.22;1.27;;;18.80;38.80;;;;;;8326528;28;20434;-52
2024/01/16 02:25:29;;;;;;;1.13;1.00;;;18.90;38.40;;;;;;8326638;28;20033;-51
2024/01/16 02:29:29;;;;;;;1.80;1.10;;;18.90;38.10;;;;;;8326472;28;20033;-51
2024/01/16 02:33:30;;;;;;;1.70;1.00;;;18.90;37.80;;;;;;8326859;28;20041;-50
2024/01/16 02:37:31;;;;;;;1.05;0.82;;;19.00;37.80;;;;;;8327532;28;20336;-50
2024/01/16 02:41:31;;;;;;;1.17;1.00;;;19.00;37.60;;;;;;8326400;28;20144;-51
2024/01/16 02:45:32;;;;;;;2.88;0.93;;;19.00;37.60;;;;;;8326574;28;20041;-51
2024/01/16 02:49:33;;;;;;;1.80;1.05;;;19.00;37.50;;;;;;8326197;28;20034;-50
2024/01/16 02:53:34;;;;;;;2.03;0.80;;;19.00;37.40;;;;;;8326365;28;20179;-49
2024/01/16 02:57:34;;;;;;;0.90;0.80;;;19.10;37.40;;;;;;8326436;28;20462;-49
2024/01/16 03:01:35;;;;;;;1.60;0.80;;;18.90;38.30;;;;;;8326015;28;20026;-50
2024/01/16 03:05:36;;;;;;;0.70;0.70;;;18.70;38.80;;;;;;8326475;28;20394;-48
2024/01/16 03:09:37;;;;;;;2.35;1.25;;;18.80;38.50;;;;;;8325822;28;20049;-49
2024/01/16 03:13:37;;;;;;;3.93;1.20;;;18.90;38.70;;;;;;8326306;28;20441;-50
2024/01/16 03:17:38;;;;;;;2.83;1.30;;;18.90;37.80;;;;;;8326138;28;20061;-51
2024/01/16 03:21:39;;;;;;;2.93;1.10;;;19.00;37.60;;;;;;8326411;28;20087;-51
2024/01/16 03:25:39;;;;;;;1.58;1.00;;;19.00;37.50;;;;;;8325685;28;20033;-50
2024/01/16 03:29:40;;;;;;;3.00;1.80;;;19.10;37.90;;;;;;8325680;28;20156;-48
2024/01/16 03:33:42;;;;;;;2.30;1.40;;;19.10;37.30;;;;;;8328662;28;20280;-50
2024/01/16 03:37:42;;;;;;;1.55;0.80;;;19.10;37.20;;;;;;8331497;28;20499;-52
2024/01/16 03:41:43;;;;;;;1.50;1.02;;;19.10;37.10;;;;;;8331443;28;20431;-49
2024/01/16 03:45:44;;;;;;;1.25;0.85;;;19.10;37.10;;;;;;8331251;28;20483;-48
2024/01/16 03:49:45;;;;;;;2.13;0.90;;;18.90;38.20;;;;;;8331357;28;20038;-49
2024/01/16 03:53:45;;;;;;;1.90;1.00;;;18.80;38.70;;;;;;8331161;28;20087;-48
2024/01/16 03:57:46;;;;;;;1.75;0.95;;;18.90;38.30;;;;;;8330865;28;20077;-49
2024/01/16 04:01:48;;;;;;;1.53;1.00;;;18.90;37.90;;;;;;8330916;28;20087;-49
2024/01/16 04:05:49;;;;;;;1.75;1.02;;;19.00;37.60;;;;;;8330799;28;20295;-48
2024/01/16 04:09:49;;;;;;;1.37;0.90;;;19.00;37.50;;;;;;8330419;28;20046;-49
2024/01/16 04:13:50;;;;;;;2.33;0.93;;;19.10;37.30;;;;;;8330431;28;20284;-49
2024/01/16 04:17:50;;;;;;;1.40;0.88;;;19.10;37.20;;;;;;8331464;28;20284;-49
2024/01/16 04:21:51;;;;;;;1.77;1.10;;;19.10;37.10;;;;;;8330229;28;20034;-49
2024/01/16 04:25:52;;;;;;;1.10;1.00;;;19.10;37.10;;;;;;8329838;28;20387;-48
2024/01/16 04:29:53;;;;;;;1.55;0.85;;;19.10;37.00;;;;;;8328497;28;20128;-49
2024/01/16 04:33:53;;;;;;;3.08;0.85;;;19.00;37.20;;;;;;8329670;28;20029;-49
2024/01/16 04:37:54;;;;;;;1.98;1.08;;;18.80;38.30;;;;;;8329616;28;20452;-51
2024/01/16 04:41:55;;;;;;;2.75;1.25;;;18.70;38.60;;;;;;8329898;28;20080;-49
2024/01/16 04:45:55;;;;;;;2.47;1.02;;;18.80;38.30;;;;;;8329004;28;20045;-48
2024/01/16 04:49:56;;;;;;;1.35;0.82;;;18.80;37.90;;;;;;8329232;28;20112;-50
2024/01/16 04:53:57;;;;;;;1.38;0.93;;;18.90;37.60;;;;;;8329059;28;20529;-48
2024/01/16 04:57:59;;;;;;;1.20;0.68;;;19.00;37.40;;;;;;8328976;28;20116;-50
2024/01/16 05:02:00;;;;;;;1.25;0.85;;;19.00;37.20;;;;;;8327542;28;20218;-49
2024/01/16 05:06:01;;;;;;;0.90;0.80;;;19.00;37.10;;;;;;8327381;28;20034;-49
2024/01/16 05:10:02;;;;;;;1.17;0.77;;;19.10;37.00;;;;;;8328358;28;20053;-49
2024/01/16 05:14:03;;;;;;;1.13;0.88;;;19.10;36.90;;;;;;8328803;28;20038;-51
2024/01/16 05:18:04;;;;;;;1.85;1.00;;;19.10;36.70;;;;;;8328408;28;20056;-51
2024/01/16 05:22:04;;;;;;;1.15;0.88;;;19.10;37.00;;;;;;8328224;28;20037;-49
2024/01/16 05:26:05;;;;;;;1.25;1.00;;;18.90;38.10;;;;;;8328284;28;20033;-50
2024/01/16 05:30:07;;;;;;;1.67;0.60;;;18.80;38.20;;;;;;8328061;28;20140;-51
2024/01/16 05:34:10;;;;;;;1.25;0.95;;;18.90;37.80;;;;;;8327977;28;20036;-49
2024/01/16 05:38:12;;;;;;;1.67;0.98;;;19.00;37.60;;;;;;8328092;28;20033;-50
2024/01/16 05:42:13;;;;;;;1.23;0.73;;;19.00;37.30;;;;;;8327547;28;20072;-49
2024/01/16 05:46:13;;;;;;;1.58;0.70;;;19.10;37.20;;;;;;8328013;28;20041;-50
2024/01/16 05:50:17;;;;;;;1.90;1.13;;;19.10;37.10;;;;;;8327489;28;20045;-51
2024/01/16 05:54:17;;;;;;;0.80;0.70;;;19.10;36.90;;;;;;8327036;28;20283;-50
2024/01/16 05:58:18;;;;;;;1.42;0.85;;;19.10;36.80;;;;;;8327071;28;20037;-49
2024/01/16 06:02:19;;;;;;;1.35;1.13;;;19.10;36.80;;;;;;8327239;28;20403;-51
2024/01/16 06:06:39;;;;;;;1.90;0.93;;;19.10;36.60;;;;;;8327006;28;20037;-51
2024/01/16 06:10:39;;;;;;;1.35;0.85;;;19.10;37.10;;;;;;8325486;28;20144;-51
2024/01/16 06:14:40;;;;;;;1.20;0.77;;;18.80;38.10;;;;;;8325763;28;20037;-51
2024/01/16 06:18:41;;;;;;;1.07;0.97;;;18.80;38.20;;;;;;8326931;28;20611;-50
2024/01/16 06:22:41;;;;;;;1.77;0.98;;;18.90;37.80;;;;;;8326894;28;20332;-49
2024/01/16 06:26:42;;;;;;;0.98;0.88;;;18.90;37.40;;;;;;8325494;28;20116;-49
2024/01/16 06:30:43;;;;;;;1.15;0.80;;;19.00;37.30;;;;;;8327063;28;20029;-51
2024/01/16 06:34:43;;;;;;;1.55;0.88;;;19.00;37.10;;;;;;8326769;28;20029;-49
2024/01/16 06:38:44;;;;;;;1.92;0.80;;;19.00;37.00;;;;;;8326518;28;20491;-52
2024/01/16 06:42:45;;;;;;;1.52;0.90;;;19.00;36.90;;;;;;8326418;28;20375;-50
2024/01/16 06:46:46;;;;;;;0.90;0.70;;;19.00;36.80;;;;;;8326707;28;20038;-49
2024/01/16 06:50:46;;;;;;;1.27;0.90;;;19.10;36.70;;;;;;8326503;28;20038;-49
2024/01/16 06:54:47;;;;;;;0.85;0.65;;;19.10;36.60;;;;;;8326358;28;20033;-50
2024/01/16 06:58:48;;;;;;;2.03;0.77;;;19.00;37.20;;;;;;8326314;28;20763;-49
2024/01/16 07:02:51;;;;;;;1.23;0.90;;;18.80;38.20;;;;;;8326200;28;20034;-49
2024/01/16 07:06:51;;;;;;;1.77;1.27;;;18.70;38.10;;;;;;8327701;28;20441;-50
2024/01/16 07:10:52;;;;;;;1.15;0.60;;;18.90;37.70;;;;;;8332122;28;20053;-50
2024/01/16 07:14:53;;;;;;;0.85;0.65;;;18.90;37.40;;;;;;8332548;28;20520;-51
2024/01/16 07:18:55;;;;;;;1.25;0.95;;;19.00;37.10;;;;;;8332342;28;20537;-49
2024/01/16 07:22:56;;;;;;;1.05;0.68;;;19.00;37.00;;;;;;8332285;28;20036;-48
2024/01/16 07:26:56;;;;;;;0.93;0.60;;;19.00;36.80;;;;;;8332119;28;20048;-49
2024/01/16 07:30:57;;;;;;;2.03;1.02;;;19.10;36.80;;;;;;8331729;28;20372;-49
2024/01/16 07:34:58;;;;;;;0.98;0.80;;;19.10;36.70;;;;;;8331768;28;20033;-49
2024/01/16 07:38:59;;;;;;;1.40;0.70;;;19.10;36.60;;;;;;8331801;28;20040;-49
2024/01/16 07:42:59;;;;;;;2.15;0.77;;;19.10;36.60;;;;;;8331503;28;20084;-51
2024/01/16 07:47:00;;;;;;;1.42;0.85;;;18.90;37.20;;;;;;8331375;28;20041;-50
2024/01/16 07:51:01;;;;;;;1.30;0.68;;;18.80;38.10;;;;;;8331457;28;20045;-49
2024/01/16 07:55:03;;;;;;;1.23;0.80;;;18.80;38.00;;;;;;8331150;28;20594;-49
2024/01/16 07:59:04;;;;;;;1.73;0.80;;;18.90;37.60;;;;;;8330843;28;20038;-52
2024/01/16 08:03:08;;;;;;;0.90;0.75;;;18.90;37.30;;;;;;8331145;28;20033;-48
2024/01/16 08:07:09;;;;;;;0.70;0.60;;;18.90;37.00;;;;;;8331183;28;20051;-49
2024/01/16 08:11:09;;;;;;;0.73;0.68;;;19.00;37.00;;;;;;8329325;28;20057;-49
2024/01/16 08:15:10;;;;;;;0.82;0.82;;;19.00;36.80;;;;;;8330508;28;20692;-49
2024/01/16 08:19:11;;;;;;;0.82;0.80;;;19.00;36.70;;;;;;8329653;28;20080;-49
2024/01/16 08:23:12;;;;;;;1.05;0.77;;;19.00;36.60;;;;;;8329475;28;20120;-48
2024/01/16 08:27:12;;;;;;;;;;;19.00;36.60;;;;;;8330885;28;20403;-49
2024/01/16 08:31:17;;;;;;;1.13;0.80;;;19.10;36.50;;;;;;8329985;28;19913;-49
2024/01/16 08:35:18;;;;;;;1.35;0.82;;;18.90;37.30;;;;;;8330071;28;20021;-50
2024/01/16 08:39:19;;;;;;;1.40;0.90;;;18.70;38.10;;;;;;8329686;28;20096;-51
2024/01/16 08:43:20;;;;;;;1.42;0.80;;;18.80;37.90;;;;;;8329755;28;20040;-49
2024/01/16 08:47:20;;;;;;;0.60;0.60;;;18.80;37.50;;;;;;8329487;28;20116;-52
2024/01/16 08:51:21;;;;;;;0.60;0.60;;;18.90;37.30;;;;;;8329251;28;20037;-49
2024/01/16 08:55:22;;;;;;;1.05;0.70;;;18.90;37.00;;;;;;8329323;28;20029;-48
2024/01/16 08:59:23;;;;;;;0.63;0.60;;;19.00;36.90;;;;;;8328896;28;20048;-51
2024/01/16 09:03:24;;;;;;;;;;;19.00;37.30;;;;;;8329571;28;20069;-50
2024/01/16 09:07:26;;;;;;;0.97;0.83;;;19.00;36.70;;;;;;8328896;28;19909;-51
2024/01/16 09:11:27;;;;;;;0.73;0.68;;;19.00;36.60;;;;;;8328226;28;20053;-52
2024/01/16 09:15:27;;;;;;;1.70;0.80;;;19.00;36.60;;;;;;8328653;28;20025;-49
2024/01/16 09:19:28;;;;;;;0.73;0.70;;;19.00;36.50;;;;;;8328616;28;20087;-49
2024/01/16 09:23:30;;;;;;;1.13;0.70;;;18.90;37.50;;;;;;8328274;28;20526;-50
2024/01/16 09:27:30;;;;;;;0.80;0.80;;;18.70;38.10;;;;;;8328434;28;20678;-50
2024/01/16 09:31:31;;;;;;;0.80;0.80;;;18.80;37.80;;;;;;8326622;28;20651;-48
2024/01/16 09:35:32;;;;;;;0.73;0.70;;;18.90;37.40;;;;;;8327940;28;20694;-50
2024/01/16 09:39:34;;;;;;;0.75;0.60;;;18.90;37.10;;;;;;8327883;28;20038;-48
2024/01/16 09:43:36;;;;;;;0.90;0.70;;;19.00;37.00;;;;;;8326711;28;20372;-49
2024/01/16 09:47:37;;;;;;;1.00;0.70;;;19.00;36.80;;;;;;8327551;28;20037;-51
2024/01/16 09:51:38;;;;;;;1.00;0.80;;;19.00;36.70;;;;;;8327436;28;20533;-51
2024/01/16 09:55:39;;;;;;;0.88;0.88;;;19.00;36.70;;;;;;8327469;28;20432;-50
2024/01/16 09:59:40;;;;;;;0.73;0.70;;;19.00;36.50;;;;;;8327635;28;20047;-47
2024/01/16 10:03:44;;;;;;;0.90;0.80;;;19.00;36.50;;;;;;8327790;28;20036;-48
2024/01/16 10:07:46;;;;;;;1.00;0.60;;;19.00;36.40;;;;;;8326990;28;20033;-46
2024/01/16 10:11:47;;;;;;;;;;;18.90;37.60;;;;;;8327527;28;20059;-48
2024/01/16 10:15:55;;;;;;;1.08;0.70;;;18.70;38.10;;;;;;8327284;28;19928;-47
2024/01/16 10:19:58;;;;;;;0.63;0.63;;;18.80;37.70;;;;;;8326975;28;20034;-50
2024/01/16 10:24:11;;;;;;;0.90;0.68;;;18.80;37.40;;;;;;8326957;28;20554;-47
2024/01/16 10:28:14;;;;;;;0.47;0.47;;;18.90;37.10;;;;;;8326607;28;20037;-48
2024/01/16 10:32:28;;;;;;;0.80;0.60;;;18.90;36.90;;;;;;8327264;28;20080;-47
2024/01/16 10:36:29;;;;;;;1.42;0.68;;;19.00;36.80;;;;;;8326785;28;20036;-48
2024/01/16 10:40:30;;;;;;;1.02;0.70;;;19.00;36.60;;;;;;8326537;28;20037;-48
2024/01/16 10:44:31;;;;;;;;;;;19.00;36.60;;;;;;8333307;28;20111;-47
2024/01/16 10:48:33;;;;;;;0.70;0.60;;;19.00;36.50;;;;;;8333221;28;19913;-49
2024/01/16 10:52:34;;;;;;;0.90;0.65;;;19.00;36.40;;;;;;8333094;28;20056;-48
2024/01/16 10:56:36;;;;;;;0.95;0.70;;;19.00;36.60;;;;;;8331706;28;20037;-48
2024/01/16 11:00:41;;;;;;;1.17;0.80;;;18.80;37.70;;;;;;8331835;28;20121;-48
2024/01/16 11:04:43;;;;;;;0.88;0.73;;;18.70;38.10;;;;;;8333067;28;20029;-49
2024/01/16 11:08:49;;;;;;;0.65;0.65;;;18.80;37.60;;;;;;8332427;28;20053;-49
2024/01/16 11:12:51;;;;;;;0.60;0.60;;;18.90;37.20;;;;;;8332445;28;20044;-51
2024/01/16 11:16:53;;;;;;;0.75;0.75;;;18.90;37.00;;;;;;8332399;28;20037;-49
2024/01/16 11:20:56;;;;;;;0.55;0.55;;;19.00;36.80;;;;;;8332207;28;20029;-50
2024/01/16 11:25:13;;;;;;;0.65;0.50;;;19.00;36.60;;;;;;8332059;28;20065;-49
2024/01/16 11:29:26;;;;;;;0.50;0.50;;;19.00;36.60;;;;;;8331926;28;20088;-48
2024/01/16 11:33:33;;;;;;;0.70;0.70;;;19.00;36.50;;;;;;8332005;28;20379;-52
2024/01/16 11:37:36;;;;;;;0.40;0.40;;;19.00;36.40;;;;;;8331820;28;20080;-48
2024/01/16 11:41:53;;;;;;;0.63;0.60;;;19.00;36.40;;;;;;8330335;28;20044;-48
2024/01/16 11:45:53;;;;;;;0.77;0.60;;;18.90;37.00;;;;;;8331325;28;20030;-52
2024/01/16 11:50:11;;;;;;;1.02;0.77;;;18.70;37.90;;;;;;8331357;28;20414;-49
2024/01/16 11:54:13;;;;;;;0.95;0.50;;;18.70;37.80;;;;;;8330519;28;20483;-51
2024/01/16 11:58:41;;;;;;;0.50;0.50;;;18.80;37.40;;;;;;8331154;28;20487;-51
2024/01/16 12:02:47;;;;;;;0.68;0.60;;;18.90;37.10;;;;;;8331034;28;20476;-50
2024/01/16 12:06:59;;;;;;;0.60;0.60;;;18.90;36.90;;;;;;8330738;28;20038;-48
2024/01/16 12:11:00;;;;;;;0.98;0.80;;;19.00;36.80;;;;;;8331212;28;20060;-49
2024/01/16 12:15:00;;;;;;;0.82;0.52;;;19.00;36.60;;;;;;8330675;28;20515;-48
2024/01/16 12:19:08;;;;;;;1.17;0.60;;;19.00;36.40;;;;;;8330837;28;20176;-47
2024/01/16 12:23:09;;;;;;;0.77;0.50;;;19.00;36.30;;;;;;8331221;28;20025;-49
2024/01/16 12:27:10;;;;;;;0.82;0.82;;;19.00;36.30;;;;;;8330109;28;20033;-46
2024/01/16 12:31:18;;;;;;;0.75;0.60;;;19.00;36.30;;;;;;8330026;28;20039;-47
2024/01/16 12:35:22;;;;;;;0.75;0.70;;;18.80;37.30;;;;;;8330223;28;20029;-48
2024/01/16 12:39:23;;;;;;;0.65;0.50;;;18.70;37.90;;;;;;8329795;28;20456;-45
2024/01/16 12:43:24;;;;;;;0.60;0.60;;;18.70;37.50;;;;;;8329762;28;20129;-46
2024/01/16 12:47:24;;;;;;;0.47;0.47;;;18.90;37.20;;;;;;8329920;28;20033;-47
2024/01/16 12:51:25;;;;;;;0.88;0.50;;;18.90;37.00;;;;;;8328065;28;20546;-47
2024/01/16 12:55:26;;;;;;;0.70;0.70;;;18.90;36.80;;;;;;8329289;28;20033;-50
2024/01/16 12:59:29;;;;;;;0.70;0.70;;;19.00;36.60;;;;;;8329347;28;20523;-46
2024/01/16 13:03:30;;;;;;;1.10;0.82;;;19.00;36.50;;;;;;8328927;28;20395;-47
2024/01/16 13:07:32;;;;;;;0.75;0.55;;;19.00;36.40;;;;;;8328772;28;20124;-47
2024/01/16 13:11:51;;;;;;;0.88;0.70;;;19.00;36.30;;;;;;8328611;28;20507;-46
2024/01/16 13:15:52;;;;;;;0.82;0.73;;;19.00;36.30;;;;;;8329032;28;20022;-47
2024/01/16 13:19:52;;;;;;;0.95;0.60;;;19.00;36.40;;;;;;8329019;28;20036;-46
2024/01/16 13:23:53;;;;;;;0.63;0.63;;;18.80;37.50;;;;;;8328766;28;20033;-48
2024/01/16 13:27:54;;;;;;;0.88;0.70;;;18.70;37.80;;;;;;8329183;28;20033;-47
2024/01/16 13:31:55;;;;;;;0.70;0.70;;;18.80;37.50;;;;;;8328347;28;20033;-52
2024/01/16 13:35:55;;;;;;;0.73;0.70;;;18.90;37.10;;;;;;8328254;28;20025;-52
2024/01/16 13:39:56;;;;;;;0.80;0.60;;;18.90;36.90;;;;;;8328426;28;20033;-50
2024/01/16 13:43:57;;;;;;;0.70;0.60;;;18.90;36.70;;;;;;8327819;28;20529;-49
2024/01/16 13:47:57;;;;;;;0.60;0.55;;;19.00;36.60;;;;;;8326570;28;20030;-50
2024/01/16 13:51:58;;;;;;;0.90;0.68;;;19.00;36.50;;;;;;8327851;28;20018;-52
2024/01/16 13:55:59;;;;;;;0.77;0.60;;;19.00;36.40;;;;;;8327492;28;20038;-52
2024/01/16 14:00:00;;;;;;;0.60;0.60;;;19.00;36.30;;;;;;8327372;28;20112;-49
2024/01/16 14:04:01;;;;;;;0.50;0.50;;;19.00;36.30;;;;;;8327631;28;20064;-50
2024/01/16 14:08:02;;;;;;;0.60;0.60;;;19.00;36.50;;;;;;8327557;28;20044;-51
2024/01/16 14:12:03;;;;;;;;;;;18.80;37.50;;;;;;8327490;28;20022;-50
2024/01/16 14:16:04;;;;;;;0.77;0.60;;;18.70;37.70;;;;;;8326558;28;20012;-50
2024/01/16 14:20:05;;;;;;;0.60;0.60;;;18.80;37.40;;;;;;8326864;28;20543;-50
2024/01/16 14:24:06;;;;;;;0.50;0.40;;;18.90;37.10;;;;;;8327427;28;20044;-50
2024/01/16 14:28:08;;;;;;;0.73;0.65;;;18.90;36.80;;;;;;8326723;28;20029;-49
2024/01/16 14:32:09;;;;;;;0.68;0.68;;;18.90;36.60;;;;;;8326830;28;20026;-49
2024/01/16 14:36:10;;;;;;;;;;;19.00;36.50;;;;;;8327386;28;20029;-49
2024/01/16 14:40:20;;;;;;;0.97;0.70;;;19.00;36.40;;;;;;8326503;28;20371;-50
2024/01/16 14:44:20;;;;;;;0.80;0.60;;;19.00;36.30;;;;;;8325332;28;20411;-49
2024/01/16 14:48:22;;;;;;;0.68;0.60;;;19.00;36.30;;;;;;8326759;28;20356;-49
2024/01/16 14:52:22;;;;;;;0.55;0.50;;;19.00;36.20;;;;;;8326561;28;20061;-51
2024/01/16 14:56:25;;;;;;;0.85;0.70;;;18.90;36.60;;;;;;8326238;28;20033;-49
2024/01/16 15:00:26;;;;;;;;;;;18.80;37.60;;;;;;8326906;28;20068;-51
2024/01/16 15:04:27;;;;;;;;;;;18.70;37.70;;;;;;8326508;28;19931;-48
2024/01/16 15:08:30;;;;;;;0.90;0.50;;;18.70;37.30;;;;;;8326027;28;19928;-49
2024/01/16 15:12:32;;;;;;;1.25;0.70;;;18.80;37.00;;;;;;8326289;28;20032;-49
2024/01/16 15:16:32;;;;;;;0.47;0.47;;;18.90;36.80;;;;;;8326171;28;20116;-49
2024/01/16 15:20:33;;;;;;;0.50;0.50;;;18.90;36.60;;;;;;8324848;28;20038;-50
2024/01/16 15:24:34;;;;;;;1.80;0.50;;;18.90;36.50;;;;;;8325999;28;20042;-49
2024/01/16 15:28:34;;;;;;;0.40;0.40;;;19.00;36.40;;;;;;8328595;28;20065;-50
2024/01/16 15:32:35;;;;;;;1.27;0.60;;;19.00;36.30;;;;;;8332241;28;20113;-51
2024/01/16 15:36:36;;;;;;;0.77;0.60;;;19.00;36.30;;;;;;8331574;28;20040;-50
2024/01/16 15:40:36;;;;;;;0.85;0.55;;;19.00;36.20;;;;;;8331756;28;20112;-48
2024/01/16 15:44:37;;;;;;;0.75;0.50;;;18.90;36.80;;;;;;8331618;28;20072;-49
2024/01/16 15:48:38;;;;;;;0.57;0.57;;;18.70;37.70;;;;;;8331407;28;20045;-49
2024/01/16 15:52:39;;;;;;;0.80;0.70;;;18.60;37.70;;;;;;8331664;28;20033;-48
2024/01/16 15:56:40;;;;;;;0.82;0.55;;;18.70;37.40;;;;;;8331319;28;20040;-51
2024/01/16 16:00:40;;;;;;;0.93;0.70;;;18.80;37.00;;;;;;8330945;28;20037;-51
2024/01/16 16:04:41;;;;;;;0.68;0.68;;;18.90;36.80;;;;;;8330822;28;20065;-49
2024/01/16 16:08:42;;;;;;;0.55;0.55;;;18.90;36.60;;;;;;8331105;28;20072;-48
2024/01/16 16:12:42;;;;;;;1.08;0.88;;;18.90;36.40;;;;;;8329425;28;20033;-48
2024/01/16 16:16:43;;;;;;;0.60;0.60;;;19.00;36.80;;;;;;8338798;28;20444;-49
2024/01/16 16:20:44;;;;;;;0.60;0.60;;;19.00;36.60;;;;;;8326411;28;20039;-48
2024/01/16 16:24:45;;;;;;;0.73;0.60;;;19.10;36.40;;;;;;8346305;28;20049;-49
2024/01/16 16:28:45;;;;;;;1.00;0.67;;;19.10;36.30;;;;;;8328436;28;20425;-50
2024/01/16 16:32:46;;;;;;;0.95;0.70;;;19.00;36.80;;;;;;8324807;28;20295;-49
2024/01/16 16:36:47;;;;;;;2.53;0.80;;;18.80;38.30;;;;;;8329263;28;20519;-48
2024/01/16 16:40:48;;;;;;;0.75;0.65;;;18.90;38.50;;;;;;8327476;28;20433;-47
2024/01/16 16:44:48;;;;;;;0.80;0.50;;;18.90;38.20;;;;;;8327808;28;20029;-48
2024/01/16 16:48:50;;;;;;;1.65;1.17;;;19.00;37.90;;;;;;8327617;28;20500;-49
2024/01/16 16:52:51;;;;;;;0.85;0.60;;;19.10;37.70;;;;;;8327990;28;20033;-49
2024/01/16 16:56:54;;;;;;;1.03;0.87;;;19.10;37.40;;;;;;8327710;28;20080;-50
2024/01/16 17:00:54;;;;;;;1.02;0.85;;;19.20;37.40;;;;;;8325967;28;20615;-47
2024/01/16 17:04:55;;;;;;;2.13;0.80;;;19.20;37.20;;;;;;8326980;28;20033;-49
2024/01/16 17:08:56;;;;;;;2.20;0.70;;;19.30;37.10;;;;;;8327017;28;20053;-48
2024/01/16 17:12:57;;;;;;;0.60;0.57;;;19.30;36.90;;;;;;8327170;28;20029;-46
2024/01/16 17:16:57;;;;;;;3.35;0.80;;;19.30;36.90;;;;;;8326894;28;20033;-46
2024/01/16 17:20:59;;;;;;;0.70;0.70;;;19.20;37.60;;;;;;8326751;28;20387;-48
2024/01/16 17:25:00;;;;;;;1.83;0.70;;;19.10;38.20;;;;;;8326313;28;20486;-46
2024/01/16 17:29:01;;;;;;;1.00;0.90;;;19.00;38.10;;;;;;8326471;28;20033;-48
2024/01/16 17:33:02;;;;;;;1.65;0.80;;;19.10;37.70;;;;;;8324943;28;20034;-47
2024/01/16 17:37:03;;;;;;;1.58;0.88;;;19.20;37.50;;;;;;8326561;28;20030;-47
2024/01/16 17:41:04;;;;;;;1.90;1.23;;;19.20;37.30;;;;;;8327171;28;20060;-47
2024/01/16 17:45:07;;;;;;;4.07;1.00;;;19.30;37.20;;;;;;8327358;28;20414;-47
2024/01/16 17:49:08;;;;;;;1.80;1.17;;;19.30;37.10;;;;;;8326543;28;20479;-45
2024/01/16 17:53:09;;;;;;;0.98;0.75;;;19.30;37.10;;;;;;8325587;28;20503;-47
2024/01/16 17:57:10;;;;;;;2.80;0.93;;;19.30;37.00;;;;;;8311551;28;20072;-46
2024/01/16 18:01:11;;;;;;;3.00;0.90;;;19.30;36.80;;;;;;8311798;28;20387;-47
2024/01/16 18:05:16;;;;;;;1.60;1.00;;;19.30;36.80;;;;;;8316064;28;20716;-47
2024/01/16 18:09:16;;;;;;;4.43;1.13;;;19.20;37.70;;;;;;8312608;28;20560;-46
2024/01/16 18:13:17;;;;;;;3.15;1.05;;;19.10;38.60;;;;;;8327252;28;20479;-46
2024/01/16 18:17:18;;;;;;;5.63;1.40;;;19.10;38.50;;;;;;8325456;28;20037;-50
2024/01/16 18:21:19;;;;;;;4.80;0.88;;;19.20;38.60;;;;;;8306255;28;20030;-47
2024/01/16 18:25:19;;;;;;;3.03;1.60;;;19.30;38.20;;;;;;8294097;28;20026;-48
2024/01/16 18:29:20;;;;;;;1.93;1.23;;;19.30;38.10;;;;;;8322667;28;20075;-48
2024/01/16 18:33:22;;;;;;;5.25;1.40;;;19.30;37.80;;;;;;8341944;28;20829;-50
2024/01/16 18:37:23;;;;;;;2.67;1.00;;;19.30;37.70;;;;;;8326794;28;20041;-46
2024/01/16 18:41:24;;;;;;;7.20;1.55;;;19.30;37.70;;;;;;8323255;28;20026;-47
2024/01/16 18:45:26;;;;;;;2.70;1.30;;;19.30;38.10;;;;;;8318363;28;20072;-45
2024/01/16 18:49:26;;;;;;;3.95;0.90;;;19.40;38.50;;;;;;8306797;28;20129;-46
2024/01/16 18:53:27;;;;;;;2.28;1.10;;;19.40;38.40;;;;;;8308654;28;20021;-45
2024/01/16 18:57:28;;;;;;;4.75;1.50;;;19.30;39.40;;;;;;8323991;28;20033;-47
2024/01/16 19:01:29;;;;;;;8.07;2.38;;;19.30;40.70;;;;;;8322274;28;20041;-47
2024/01/16 19:05:30;;;;;;;6.30;2.90;;;19.40;40.70;;;;;;8330651;28;20043;-46
2024/01/16 19:09:36;;;;;;;7.38;2.58;;;19.40;40.20;;;;;;8331005;28;20058;-47
2024/01/16 19:13:42;;;;;;;8.65;3.22;;;19.40;40.20;;;;;;8310100;28;20091;-46
2024/01/16 19:17:47;;;;;;;15.80;3.15;;;19.50;40.70;;;;;;8307193;28;20044;-47
2024/01/16 19:21:48;;;;;;;8.02;2.92;;;19.60;41.30;;;;;;8316080;28;20083;-47
2024/01/16 19:25:49;;;;;;;11.23;3.57;;;19.60;42.20;;;;;;8303604;28;20033;-47
2024/01/16 19:29:49;;;;;;;17.23;6.53;;;19.50;41.40;;;;;;8319711;28;20314;-46
2024/01/16 19:33:50;;;;;;;14.02;7.97;;;19.20;38.90;;;;;;8317375;28;20065;-47
2024/01/16 19:37:51;;;;;;;20.27;7.88;;;19.10;38.40;;;;;;8319673;28;20545;-45
2024/01/16 19:41:52;;;;;;;14.50;7.57;;;19.20;39.10;;;;;;8312321;28;20041;-45
2024/01/16 19:45:52;;;;;;;13.20;6.88;;;19.20;40.20;;;;;;8315924;28;20033;-47
2024/01/16 19:49:53;;;;;;;14.48;7.88;;;19.30;41.10;;;;;;8323248;28;20045;-51
2024/01/16 19:53:54;;;;;;;16.33;8.13;;;19.50;42.20;;;;;;8257397;28;20041;-47
2024/01/16 19:57:56;;;;;;;23.17;7.53;;;19.60;42.30;;;;;;8267523;28;20617;-49
2024/01/16 20:01:57;;;;;;;21.10;7.20;;;19.70;42.50;;;;;;8268317;28;20049;-48
2024/01/16 20:05:58;;;;;;;17.70;7.50;;;19.70;42.30;;;;;;8267920;28;20060;-47
2024/01/16 20:09:58;;;;;;;18.60;7.43;;;19.80;41.90;;;;;;8292719;28;20446;-48
2024/01/16 20:14:00;;;;;;;19.25;7.70;;;19.80;41.80;;;;;;8323179;28;20041;-46
2024/01/16 20:18:02;;;;;;;17.50;7.32;;;19.80;41.40;;;;;;8316728;28;20029;-47
2024/01/16 20:22:03;;;;;;;19.33;7.00;;;19.80;41.40;;;;;;8321926;28;20032;-48
2024/01/16 20:26:05;;;;;;;21.42;7.47;;;19.80;41.90;;;;;;8312170;28;20507;-47
2024/01/16 20:30:10;;;;;;;18.30;6.70;;;19.80;42.00;;;;;;8323657;28;20048;-46
2024/01/16 20:34:11;;;;;;;25.55;7.90;;;19.70;43.00;;;;;;8316065;28;20048;-46
2024/01/16 20:38:12;;;;;;;14.40;6.93;;;19.60;43.30;;;;;;8317916;28;20034;-45
2024/01/16 20:42:12;;;;;;;26.77;9.68;;;19.80;43.10;;;;;;8327872;28;20649;-45
2024/01/16 20:46:14;;;;;;;21.55;9.13;;;19.80;42.70;;;;;;8323576;28;20408;-45
2024/01/16 20:50:15;;;;;;;22.63;8.50;;;19.80;42.30;;;;;;8328970;28;20391;-46
2024/01/16 20:54:16;;;;;;;23.95;8.57;;;19.80;42.10;;;;;;8324986;28;20136;-46
2024/01/16 20:58:16;;;;;;;18.95;7.65;;;19.80;42.00;;;;;;8322790;28;20041;-47